Morning Lady — 3FKC3 — position and weather

sailwx.info

Track history (hours):
 
Tides and Currents Weather Stations Pressure Air Temp Water Temp Dewpoint Dewpoint Depression Visibility Wind Speed Wind Dir Waves Ship Positions

Morning Lady

Last reported at 2016-Jun-25 15:15 UTC. Time now 2016-Jun-25 16:04 UTC.
Position N 58°01' E 011°42'.

Length 234 m; draft 8 m.

Type: Ship. MMSI: 356473000.

Date/timePositionNaut miles runAvg speedWind from/ knotsBaromVisibWave heightAir tempDewpointWater temp
2016-Jun-25 15:15N 58°01' E 011°42'0 0.0
2016-Jun-25 14:27N 58°01' E 011°42'0 0.0
2016-Jun-25 13:27N 58°01' E 011°42'0 0.0
2016-Jun-25 12:12N 58°01' E 011°42'0 0.0
2016-Jun-25 11:33N 58°01' E 011°42'0 0.0
2016-Jun-25 10:21N 58°01' E 011°42'0 0.0
2016-Jun-25 09:33N 58°01' E 011°42'0 0.0
2016-Jun-25 08:33N 58°01' E 011°42'0 0.0
2016-Jun-25 07:27N 58°01' E 011°42'0 0.0
2016-Jun-25 06:27N 58°01' E 011°42'0 0.0
2016-Jun-25 05:33N 58°01' E 011°42'6 5.7
2016-Jun-25 04:33N 57°55' E 011°39'1110.7
2016-Jun-25 03:33N 57°48' E 011°24'4 4.5
2016-Jun-25 02:33N 57°43' E 011°24'1 0.9
2016-Jun-25 01:33N 57°43' E 011°22'1 0.6
2016-Jun-25 00:33N 57°42' E 011°21'1 0.7
2016-Jun-24 23:33N 57°42' E 011°20'1 0.8
2016-Jun-24 22:33N 57°43' E 011°19'1 1.0
2016-Jun-24 21:33N 57°43' E 011°17'1 1.0
2016-Jun-24 20:33N 57°44' E 011°16'1 1.3
2016-Jun-24 19:33N 57°45' E 011°15'2 1.5
2016-Jun-24 18:33N 57°46' E 011°13'1 1.3
2016-Jun-24 17:33N 57°47' E 011°10'3 2.6
2016-Jun-24 16:33N 57°48' E 011°06'1616.0
2016-Jun-24 15:33N 57°51' E 010°36'1816.5
2016-Jun-24 14:29N 57°48' E 010°04'26316.1
2016-Jun-23 22:07N 54°26' E 005°00'1017.0
2016-Jun-23 21:33N 54°18' E 004°51'1716.9
2016-Jun-23 20:33N 54°03' E 004°39'1616.4
2016-Jun-23 19:33N 53°49' E 004°26'1916.8
2016-Jun-23 18:26N 53°37' E 004°00'11316.4
2016-Jun-23 11:33N 51°55' E 002°40'1514.6
2016-Jun-23 10:33N 51°42' E 002°30'1414.3
2016-Jun-23 09:33N 51°31' E 002°16'1413.9
2016-Jun-23 08:33N 51°18' E 002°06'1313.2
2016-Jun-23 07:33N 51°09' E 001°50'2914.3
2016-Jun-23 05:32N 50°46' E 001°24'4614.3
2016-Jun-23 02:21N 50°23' E 000°22'1214.9
2016-Jun-23 01:33N 50°20' E 000°04'1615.5
2016-Jun-23 00:31N 50°16' W 000°20'1716.5
2016-Jun-22 23:31N 50°11' W 000°45'7818.5
2016-Jun-22 19:19N 49°51' W 002°42'1317.0
2016-Jun-22 18:33N 49°48' W 003°01'1716.6
2016-Jun-22 17:33N 49°43' W 003°26'13314.4
2016-Jun-22 08:17N 49°11' W 006°44'  
Track history (hours):
 
Tides and Currents Weather Stations Pressure Air Temp Water Temp Dewpoint Dewpoint Depression Visibility Wind Speed Wind Dir Waves Ship Positions

Morning Lady

Last reported at 2016-Jun-25 15:15 UTC. Time now 2016-Jun-25 16:04 UTC.
Position N 58°01' E 011°42'.

Length 234 m; draft 8 m.

Type: Ship. MMSI: 356473000.

Date/timePositionNaut miles runAvg speedWind from/ knotsBaromVisibWave heightAir tempDewpointWater temp
2016-Jun-25 15:15N 58°01' E 011°42'0 0.0
2016-Jun-25 14:27N 58°01' E 011°42'0 0.0
2016-Jun-25 13:27N 58°01' E 011°42'0 0.0
2016-Jun-25 12:12N 58°01' E 011°42'0 0.0
2016-Jun-25 11:33N 58°01' E 011°42'0 0.0
2016-Jun-25 10:21N 58°01' E 011°42'0 0.0
2016-Jun-25 09:33N 58°01' E 011°42'0 0.0
2016-Jun-25 08:33N 58°01' E 011°42'0 0.0
2016-Jun-25 07:27N 58°01' E 011°42'0 0.0
2016-Jun-25 06:27N 58°01' E 011°42'0 0.0
2016-Jun-25 05:33N 58°01' E 011°42'6 5.7
2016-Jun-25 04:33N 57°55' E 011°39'1110.7
2016-Jun-25 03:33N 57°48' E 011°24'4 4.5
2016-Jun-25 02:33N 57°43' E 011°24'1 0.9
2016-Jun-25 01:33N 57°43' E 011°22'1 0.6
2016-Jun-25 00:33N 57°42' E 011°21'1 0.7
2016-Jun-24 23:33N 57°42' E 011°20'1 0.8
2016-Jun-24 22:33N 57°43' E 011°19'1 1.0
2016-Jun-24 21:33N 57°43' E 011°17'1 1.0
2016-Jun-24 20:33N 57°44' E 011°16'1 1.3
2016-Jun-24 19:33N 57°45' E 011°15'2 1.5
2016-Jun-24 18:33N 57°46' E 011°13'1 1.3
2016-Jun-24 17:33N 57°47' E 011°10'3 2.6
2016-Jun-24 16:33N 57°48' E 011°06'1616.0
2016-Jun-24 15:33N 57°51' E 010°36'1816.5
2016-Jun-24 14:29N 57°48' E 010°04'26316.1
2016-Jun-23 22:07N 54°26' E 005°00'1017.0
2016-Jun-23 21:33N 54°18' E 004°51'1716.9
2016-Jun-23 20:33N 54°03' E 004°39'1616.4
2016-Jun-23 19:33N 53°49' E 004°26'1916.8
2016-Jun-23 18:26N 53°37' E 004°00'11316.4
2016-Jun-23 11:33N 51°55' E 002°40'1514.6
2016-Jun-23 10:33N 51°42' E 002°30'1414.3
2016-Jun-23 09:33N 51°31' E 002°16'1413.9
2016-Jun-23 08:33N 51°18' E 002°06'1313.2
2016-Jun-23 07:33N 51°09' E 001°50'2914.3
2016-Jun-23 05:32N 50°46' E 001°24'4614.3
2016-Jun-23 02:21N 50°23' E 000°22'1214.9
2016-Jun-23 01:33N 50°20' E 000°04'1615.5
2016-Jun-23 00:31N 50°16' W 000°20'1716.5
2016-Jun-22 23:31N 50°11' W 000°45'7818.5
2016-Jun-22 19:19N 49°51' W 002°42'1317.0
2016-Jun-22 18:33N 49°48' W 003°01'1716.6
2016-Jun-22 17:33N 49°43' W 003°26'13314.4
2016-Jun-22 08:17N 49°11' W 006°44'  

Dump ship's entire track history